sensor_id;sensor_type;location;lat;lon;timestamp;temperature;humidity
19941;DHT22;10132;50.864;5.176;2022-08-01T00:00:06;21.10;99.90
19941;DHT22;10132;50.864;5.176;2022-08-01T00:02:08;21.10;99.90
19941;DHT22;10132;50.864;5.176;2022-08-01T00:04:10;21.00;99.90
19941;DHT22;10132;50.864;5.176;2022-08-01T00:06:12;20.90;99.90
19941;DHT22;10132;50.864;5.176;2022-08-01T00:08:16;21.00;99.90
19941;DHT22;10132;50.864;5.176;2022-08-01T00:10:18;21.00;99.90
19941;DHT22;10132;50.864;5.176;2022-08-01T00:12:20;21.00;99.90
19941;DHT22;10132;50.864;5.176;2022-08-01T00:14:22;21.00;99.90
19941;DHT22;10132;50.864;5.176;2022-08-01T00:16:24;21.00;99.90
19941;DHT22;10132;50.864;5.176;2022-08-01T00:18:26;21.00;99.90
19941;DHT22;10132;50.864;5.176;2022-08-01T00:20:28;21.00;99.90
19941;DHT22;10132;50.864;5.176;2022-08-01T00:22:30;21.10;99.90
19941;DHT22;10132;50.864;5.176;2022-08-01T00:24:33;21.00;99.90
19941;DHT22;10132;50.864;5.176;2022-08-01T00:26:35;21.00;99.90
19941;DHT22;10132;50.864;5.176;2022-08-01T00:28:37;21.00;99.90
19941;DHT22;10132;50.864;5.176;2022-08-01T00:30:39;21.10;99.90
19941;DHT22;10132;50.864;5.176;2022-08-01T00:32:41;21.00;99.90
19941;DHT22;10132;50.864;5.176;2022-08-01T00:34:44;21.00;99.90
19941;DHT22;10132;50.864;5.176;2022-08-01T00:36:45;20.90;99.90
19941;DHT22;10132;50.864;5.176;2022-08-01T00:38:48;21.00;99.90
19941;DHT22;10132;50.864;5.176;2022-08-01T00:40:51;21.00;99.90
19941;DHT22;10132;50.864;5.176;2022-08-01T00:42:53;20.90;99.90
19941;DHT22;10132;50.864;5.176;2022-08-01T00:44:55;20.90;99.90
19941;DHT22;10132;50.864;5.176;2022-08-01T00:46:57;21.10;99.90
19941;DHT22;10132;50.864;5.176;2022-08-01T00:48:59;21.10;99.90
19941;DHT22;10132;50.864;5.176;2022-08-01T00:51:03;21.20;99.90
19941;DHT22;10132;50.864;5.176;2022-08-01T00:53:05;21.30;99.90
19941;DHT22;10132;50.864;5.176;2022-08-01T00:55:09;21.20;99.90
19941;DHT22;10132;50.864;5.176;2022-08-01T00:57:12;21.20;99.90
19941;DHT22;10132;50.864;5.176;2022-08-01T00:59:17;21.20;99.90
19941;DHT22;10132;50.864;5.176;2022-08-01T01:01:20;21.10;99.90
19941;DHT22;10132;50.864;5.176;2022-08-01T01:03:23;21.10;99.90
19941;DHT22;10132;50.864;5.176;2022-08-01T01:05:25;21.10;99.90
19941;DHT22;10132;50.864;5.176;2022-08-01T01:07:34;21.20;99.90
19941;DHT22;10132;50.864;5.176;2022-08-01T01:09:44;21.20;99.90
19941;DHT22;10132;50.864;5.176;2022-08-01T01:11:56;21.20;99.90
19941;DHT22;10132;50.864;5.176;2022-08-01T01:14:05;21.10;99.90
19941;DHT22;10132;50.864;5.176;2022-08-01T01:16:12;21.20;99.90
19941;DHT22;10132;50.864;5.176;2022-08-01T01:18:20;21.30;99.90
19941;DHT22;10132;50.864;5.176;2022-08-01T01:20:27;21.30;99.90
19941;DHT22;10132;50.864;5.176;2022-08-01T01:22:47;21.30;99.90
19941;DHT22;10132;50.864;5.176;2022-08-01T01:25:16;21.20;99.90
19941;DHT22;10132;50.864;5.176;2022-08-01T01:27:27;21.20;99.90
19941;DHT22;10132;50.864;5.176;2022-08-01T01:29:37;21.10;99.90
19941;DHT22;10132;50.864;5.176;2022-08-01T01:31:44;21.10;99.90
19941;DHT22;10132;50.864;5.176;2022-08-01T01:33:48;21.00;99.90
19941;DHT22;10132;50.864;5.176;2022-08-01T01:35:56;20.90;99.90
19941;DHT22;10132;50.864;5.176;2022-08-01T01:38:09;20.90;99.90
19941;DHT22;10132;50.864;5.176;2022-08-01T01:40:14;20.90;99.90
19941;DHT22;10132;50.864;5.176;2022-08-01T01:42:17;20.80;99.90
19941;DHT22;10132;50.864;5.176;2022-08-01T01:44:19;20.80;99.90
19941;DHT22;10132;50.864;5.176;2022-08-01T01:46:24;20.80;99.90
19941;DHT22;10132;50.864;5.176;2022-08-01T01:48:28;20.90;99.90
19941;DHT22;10132;50.864;5.176;2022-08-01T01:50:31;20.80;99.90
19941;DHT22;10132;50.864;5.176;2022-08-01T01:52:34;20.80;99.90
19941;DHT22;10132;50.864;5.176;2022-08-01T01:54:39;20.70;99.90
19941;DHT22;10132;50.864;5.176;2022-08-01T01:56:42;20.70;99.90
19941;DHT22;10132;50.864;5.176;2022-08-01T01:58:54;20.50;99.90
19941;DHT22;10132;50.864;5.176;2022-08-01T02:00:57;20.40;99.90
19941;DHT22;10132;50.864;5.176;2022-08-01T02:03:06;20.30;99.90
19941;DHT22;10132;50.864;5.176;2022-08-01T02:05:11;20.40;99.90
19941;DHT22;10132;50.864;5.176;2022-08-01T02:07:23;20.40;99.90
19941;DHT22;10132;50.864;5.176;2022-08-01T02:09:27;20.40;99.90
19941;DHT22;10132;50.864;5.176;2022-08-01T02:11:29;20.40;99.90
19941;DHT22;10132;50.864;5.176;2022-08-01T02:13:32;20.30;99.90
19941;DHT22;10132;50.864;5.176;2022-08-01T02:15:36;20.30;99.90
19941;DHT22;10132;50.864;5.176;2022-08-01T02:17:42;20.30;99.90
19941;DHT22;10132;50.864;5.176;2022-08-01T02:19:46;20.40;99.90
19941;DHT22;10132;50.864;5.176;2022-08-01T02:21:52;20.50;99.90
19941;DHT22;10132;50.864;5.176;2022-08-01T02:24:00;20.50;99.90
19941;DHT22;10132;50.864;5.176;2022-08-01T02:26:09;20.50;99.90
19941;DHT22;10132;50.864;5.176;2022-08-01T02:28:15;20.50;99.90
19941;DHT22;10132;50.864;5.176;2022-08-01T02:30:19;20.60;99.90
19941;DHT22;10132;50.864;5.176;2022-08-01T02:32:25;20.50;99.90
19941;DHT22;10132;50.864;5.176;2022-08-01T02:34:29;20.60;99.90
19941;DHT22;10132;50.864;5.176;2022-08-01T02:36:36;20.70;99.90
19941;DHT22;10132;50.864;5.176;2022-08-01T02:38:42;20.70;99.90
19941;DHT22;10132;50.864;5.176;2022-08-01T02:40:46;20.60;99.90
19941;DHT22;10132;50.864;5.176;2022-08-01T02:42:50;20.60;99.90
19941;DHT22;10132;50.864;5.176;2022-08-01T02:44:54;20.60;99.90
19941;DHT22;10132;50.864;5.176;2022-08-01T02:46:58;20.70;99.90
19941;DHT22;10132;50.864;5.176;2022-08-01T02:49:03;20.60;99.90
19941;DHT22;10132;50.864;5.176;2022-08-01T02:51:08;20.70;99.90
19941;DHT22;10132;50.864;5.176;2022-08-01T02:53:13;20.50;99.90
19941;DHT22;10132;50.864;5.176;2022-08-01T02:55:17;20.30;99.90
19941;DHT22;10132;50.864;5.176;2022-08-01T02:57:20;20.30;99.90
19941;DHT22;10132;50.864;5.176;2022-08-01T02:59:26;20.40;99.90
19941;DHT22;10132;50.864;5.176;2022-08-01T03:01:31;20.60;99.90
19941;DHT22;10132;50.864;5.176;2022-08-01T03:03:36;20.60;99.90
19941;DHT22;10132;50.864;5.176;2022-08-01T03:05:39;20.50;99.90
19941;DHT22;10132;50.864;5.176;2022-08-01T03:07:42;20.50;99.90
19941;DHT22;10132;50.864;5.176;2022-08-01T03:09:46;20.50;99.90
19941;DHT22;10132;50.864;5.176;2022-08-01T03:11:49;20.50;99.90
19941;DHT22;10132;50.864;5.176;2022-08-01T03:13:53;20.50;99.90
19941;DHT22;10132;50.864;5.176;2022-08-01T03:15:57;20.60;99.90
19941;DHT22;10132;50.864;5.176;2022-08-01T03:18:00;20.60;99.90
19941;DHT22;10132;50.864;5.176;2022-08-01T03:20:04;20.50;99.90
19941;DHT22;10132;50.864;5.176;2022-08-01T03:22:08;20.60;99.90
19941;DHT22;10132;50.864;5.176;2022-08-01T03:24:14;20.70;99.90
19941;DHT22;10132;50.864;5.176;2022-08-01T03:26:17;20.70;99.90
19941;DHT22;10132;50.864;5.176;2022-08-01T03:28:21;20.70;99.90
19941;DHT22;10132;50.864;5.176;2022-08-01T03:30:25;20.80;99.90
19941;DHT22;10132;50.864;5.176;2022-08-01T03:32:28;20.80;99.90
19941;DHT22;10132;50.864;5.176;2022-08-01T03:34:31;20.60;99.90
19941;DHT22;10132;50.864;5.176;2022-08-01T03:36:35;20.40;99.90
19941;DHT22;10132;50.864;5.176;2022-08-01T03:38:40;20.40;99.90
19941;DHT22;10132;50.864;5.176;2022-08-01T03:40:47;20.60;99.90
19941;DHT22;10132;50.864;5.176;2022-08-01T03:42:56;20.60;99.90
19941;DHT22;10132;50.864;5.176;2022-08-01T03:45:05;20.70;99.90
19941;DHT22;10132;50.864;5.176;2022-08-01T03:47:11;20.70;99.90
19941;DHT22;10132;50.864;5.176;2022-08-01T03:49:17;20.70;99.90
19941;DHT22;10132;50.864;5.176;2022-08-01T03:51:21;20.80;99.90
19941;DHT22;10132;50.864;5.176;2022-08-01T03:53:28;20.70;99.90
19941;DHT22;10132;50.864;5.176;2022-08-01T03:55:33;20.60;99.90
19941;DHT22;10132;50.864;5.176;2022-08-01T03:57:36;20.40;99.90
19941;DHT22;10132;50.864;5.176;2022-08-01T03:59:41;20.40;99.90
19941;DHT22;10132;50.864;5.176;2022-08-01T04:01:44;20.40;99.90
19941;DHT22;10132;50.864;5.176;2022-08-01T04:03:46;20.40;99.90
19941;DHT22;10132;50.864;5.176;2022-08-01T04:05:48;20.40;99.90
19941;DHT22;10132;50.864;5.176;2022-08-01T04:07:51;20.40;99.90
19941;DHT22;10132;50.864;5.176;2022-08-01T04:09:56;20.40;99.90
19941;DHT22;10132;50.864;5.176;2022-08-01T04:11:59;20.40;99.90
19941;DHT22;10132;50.864;5.176;2022-08-01T04:14:01;20.50;99.90
19941;DHT22;10132;50.864;5.176;2022-08-01T04:16:05;20.60;99.90
19941;DHT22;10132;50.864;5.176;2022-08-01T04:18:07;20.70;99.90
19941;DHT22;10132;50.864;5.176;2022-08-01T04:20:10;20.80;99.90
19941;DHT22;10132;50.864;5.176;2022-08-01T04:22:14;20.70;99.90
19941;DHT22;10132;50.864;5.176;2022-08-01T04:24:18;20.70;99.90
19941;DHT22;10132;50.864;5.176;2022-08-01T04:26:21;20.70;99.90
19941;DHT22;10132;50.864;5.176;2022-08-01T04:28:24;20.80;99.90
19941;DHT22;10132;50.864;5.176;2022-08-01T04:30:29;20.80;99.90
19941;DHT22;10132;50.864;5.176;2022-08-01T04:32:35;20.80;99.90
19941;DHT22;10132;50.864;5.176;2022-08-01T04:34:41;20.80;99.90
19941;DHT22;10132;50.864;5.176;2022-08-01T04:36:47;20.70;99.90
19941;DHT22;10132;50.864;5.176;2022-08-01T04:38:56;20.60;99.90
19941;DHT22;10132;50.864;5.176;2022-08-01T04:40:59;20.70;99.90
19941;DHT22;10132;50.864;5.176;2022-08-01T04:43:02;20.70;99.90
19941;DHT22;10132;50.864;5.176;2022-08-01T04:45:06;20.70;99.90
19941;DHT22;10132;50.864;5.176;2022-08-01T04:47:09;20.50;99.90
19941;DHT22;10132;50.864;5.176;2022-08-01T04:49:13;20.50;99.90
19941;DHT22;10132;50.864;5.176;2022-08-01T04:51:17;20.50;99.90
19941;DHT22;10132;50.864;5.176;2022-08-01T04:53:22;20.50;99.90
19941;DHT22;10132;50.864;5.176;2022-08-01T04:55:26;20.40;99.90
19941;DHT22;10132;50.864;5.176;2022-08-01T04:57:28;20.40;99.90
19941;DHT22;10132;50.864;5.176;2022-08-01T04:59:32;20.40;99.90
19941;DHT22;10132;50.864;5.176;2022-08-01T05:01:48;20.40;99.90
19941;DHT22;10132;50.864;5.176;2022-08-01T05:03:50;20.50;99.90
19941;DHT22;10132;50.864;5.176;2022-08-01T05:05:53;20.40;99.90
19941;DHT22;10132;50.864;5.176;2022-08-01T05:07:55;20.40;99.90
19941;DHT22;10132;50.864;5.176;2022-08-01T05:09:57;20.40;99.90
19941;DHT22;10132;50.864;5.176;2022-08-01T05:11:59;20.40;99.90
19941;DHT22;10132;50.864;5.176;2022-08-01T05:14:02;20.30;99.90
19941;DHT22;10132;50.864;5.176;2022-08-01T05:16:04;20.30;99.90
19941;DHT22;10132;50.864;5.176;2022-08-01T05:18:07;20.30;99.90
19941;DHT22;10132;50.864;5.176;2022-08-01T05:20:10;20.30;99.90
19941;DHT22;10132;50.864;5.176;2022-08-01T05:22:14;20.20;99.90
19941;DHT22;10132;50.864;5.176;2022-08-01T05:24:16;20.10;99.90
19941;DHT22;10132;50.864;5.176;2022-08-01T05:26:18;20.10;99.90
19941;DHT22;10132;50.864;5.176;2022-08-01T05:28:19;20.10;99.90
19941;DHT22;10132;50.864;5.176;2022-08-01T05:30:21;20.20;99.90
19941;DHT22;10132;50.864;5.176;2022-08-01T05:32:23;20.20;99.90
19941;DHT22;10132;50.864;5.176;2022-08-01T05:34:26;20.20;99.90
19941;DHT22;10132;50.864;5.176;2022-08-01T05:36:28;20.30;99.90
19941;DHT22;10132;50.864;5.176;2022-08-01T05:38:32;20.30;99.90
19941;DHT22;10132;50.864;5.176;2022-08-01T05:40:35;20.40;99.90
19941;DHT22;10132;50.864;5.176;2022-08-01T05:42:37;20.40;99.90
19941;DHT22;10132;50.864;5.176;2022-08-01T05:44:39;20.50;99.90
19941;DHT22;10132;50.864;5.176;2022-08-01T05:46:41;20.60;99.90
19941;DHT22;10132;50.864;5.176;2022-08-01T05:48:43;20.60;99.90
19941;DHT22;10132;50.864;5.176;2022-08-01T05:50:45;20.60;99.90
19941;DHT22;10132;50.864;5.176;2022-08-01T05:52:48;20.60;99.90
19941;DHT22;10132;50.864;5.176;2022-08-01T05:54:51;20.60;99.90
19941;DHT22;10132;50.864;5.176;2022-08-01T05:56:53;20.40;99.90
19941;DHT22;10132;50.864;5.176;2022-08-01T05:58:59;20.20;99.90
19941;DHT22;10132;50.864;5.176;2022-08-01T06:01:01;20.00;99.90
19941;DHT22;10132;50.864;5.176;2022-08-01T06:03:03;19.70;99.90
19941;DHT22;10132;50.864;5.176;2022-08-01T06:05:06;19.60;99.90
19941;DHT22;10132;50.864;5.176;2022-08-01T06:07:08;19.50;99.90
19941;DHT22;10132;50.864;5.176;2022-08-01T06:09:10;19.60;99.90
19941;DHT22;10132;50.864;5.176;2022-08-01T06:11:13;19.70;99.90
19941;DHT22;10132;50.864;5.176;2022-08-01T06:13:15;19.60;99.90
19941;DHT22;10132;50.864;5.176;2022-08-01T06:15:19;19.70;99.90
19941;DHT22;10132;50.864;5.176;2022-08-01T06:17:21;19.60;99.90
19941;DHT22;10132;50.864;5.176;2022-08-01T06:19:23;19.60;99.90
19941;DHT22;10132;50.864;5.176;2022-08-01T06:21:26;19.70;99.90
19941;DHT22;10132;50.864;5.176;2022-08-01T06:23:28;19.80;99.90
19941;DHT22;10132;50.864;5.176;2022-08-01T06:25:30;19.60;99.90
19941;DHT22;10132;50.864;5.176;2022-08-01T06:27:35;19.70;99.90
19941;DHT22;10132;50.864;5.176;2022-08-01T06:29:37;19.90;99.90
19941;DHT22;10132;50.864;5.176;2022-08-01T06:31:39;20.00;99.90
19941;DHT22;10132;50.864;5.176;2022-08-01T06:33:41;20.10;99.90
19941;DHT22;10132;50.864;5.176;2022-08-01T06:35:43;20.00;99.90
19941;DHT22;10132;50.864;5.176;2022-08-01T06:37:45;20.10;99.90
19941;DHT22;10132;50.864;5.176;2022-08-01T06:39:47;20.20;99.90
19941;DHT22;10132;50.864;5.176;2022-08-01T06:41:49;20.30;99.90
19941;DHT22;10132;50.864;5.176;2022-08-01T06:43:53;20.50;99.90
19941;DHT22;10132;50.864;5.176;2022-08-01T06:45:55;20.60;99.90
19941;DHT22;10132;50.864;5.176;2022-08-01T06:47:57;20.70;99.90
19941;DHT22;10132;50.864;5.176;2022-08-01T06:49:59;20.80;99.90
19941;DHT22;10132;50.864;5.176;2022-08-01T06:52:01;20.90;99.90
19941;DHT22;10132;50.864;5.176;2022-08-01T06:54:04;20.90;99.90
19941;DHT22;10132;50.864;5.176;2022-08-01T06:56:07;20.90;99.90
19941;DHT22;10132;50.864;5.176;2022-08-01T06:58:10;20.90;99.90
19941;DHT22;10132;50.864;5.176;2022-08-01T07:00:14;21.00;99.90
19941;DHT22;10132;50.864;5.176;2022-08-01T07:02:19;21.10;99.90
19941;DHT22;10132;50.864;5.176;2022-08-01T07:04:21;21.30;99.90
19941;DHT22;10132;50.864;5.176;2022-08-01T07:06:23;21.00;99.90
19941;DHT22;10132;50.864;5.176;2022-08-01T07:08:25;21.00;99.90
19941;DHT22;10132;50.864;5.176;2022-08-01T07:10:27;21.00;99.90
19941;DHT22;10132;50.864;5.176;2022-08-01T07:12:29;20.70;99.90
19941;DHT22;10132;50.864;5.176;2022-08-01T07:14:33;20.90;99.90
19941;DHT22;10132;50.864;5.176;2022-08-01T07:16:36;21.10;99.90
19941;DHT22;10132;50.864;5.176;2022-08-01T07:18:38;21.30;99.90
19941;DHT22;10132;50.864;5.176;2022-08-01T07:20:40;21.40;99.90
19941;DHT22;10132;50.864;5.176;2022-08-01T07:22:42;21.40;99.90
19941;DHT22;10132;50.864;5.176;2022-08-01T07:24:45;21.40;99.90
19941;DHT22;10132;50.864;5.176;2022-08-01T07:26:48;21.40;99.90
19941;DHT22;10132;50.864;5.176;2022-08-01T07:28:50;21.50;99.90
19941;DHT22;10132;50.864;5.176;2022-08-01T07:30:52;21.60;99.90
19941;DHT22;10132;50.864;5.176;2022-08-01T07:32:55;21.70;99.90
19941;DHT22;10132;50.864;5.176;2022-08-01T07:34:58;21.70;99.90
19941;DHT22;10132;50.864;5.176;2022-08-01T07:37:00;21.90;99.90
19941;DHT22;10132;50.864;5.176;2022-08-01T07:39:02;22.00;99.90
19941;DHT22;10132;50.864;5.176;2022-08-01T07:41:04;22.20;99.90
19941;DHT22;10132;50.864;5.176;2022-08-01T07:43:05;22.30;99.90
19941;DHT22;10132;50.864;5.176;2022-08-01T07:45:08;22.10;99.90
19941;DHT22;10132;50.864;5.176;2022-08-01T07:47:10;21.90;99.90
19941;DHT22;10132;50.864;5.176;2022-08-01T07:49:13;21.80;99.90
19941;DHT22;10132;50.864;5.176;2022-08-01T07:51:15;22.00;99.90
19941;DHT22;10132;50.864;5.176;2022-08-01T07:53:17;21.80;99.90
19941;DHT22;10132;50.864;5.176;2022-08-01T07:55:19;21.80;99.90
19941;DHT22;10132;50.864;5.176;2022-08-01T07:57:21;21.90;99.90
19941;DHT22;10132;50.864;5.176;2022-08-01T07:59:23;22.10;99.90
19941;DHT22;10132;50.864;5.176;2022-08-01T08:01:25;22.30;99.90
19941;DHT22;10132;50.864;5.176;2022-08-01T08:03:27;22.30;99.90
19941;DHT22;10132;50.864;5.176;2022-08-01T08:05:31;22.30;99.90
19941;DHT22;10132;50.864;5.176;2022-08-01T08:07:35;22.40;99.90
19941;DHT22;10132;50.864;5.176;2022-08-01T08:09:37;22.40;99.90
19941;DHT22;10132;50.864;5.176;2022-08-01T08:11:39;22.20;99.90
19941;DHT22;10132;50.864;5.176;2022-08-01T08:13:41;22.10;99.90
19941;DHT22;10132;50.864;5.176;2022-08-01T08:15:43;22.20;99.90
19941;DHT22;10132;50.864;5.176;2022-08-01T08:17:45;22.40;99.90
19941;DHT22;10132;50.864;5.176;2022-08-01T08:19:47;22.50;99.90
19941;DHT22;10132;50.864;5.176;2022-08-01T08:21:50;22.60;99.90
19941;DHT22;10132;50.864;5.176;2022-08-01T08:23:52;22.70;99.90
19941;DHT22;10132;50.864;5.176;2022-08-01T08:26:11;22.90;99.90
19941;DHT22;10132;50.864;5.176;2022-08-01T08:28:13;23.10;99.90
19941;DHT22;10132;50.864;5.176;2022-08-01T08:30:15;23.30;99.90
19941;DHT22;10132;50.864;5.176;2022-08-01T08:32:17;23.50;99.90
19941;DHT22;10132;50.864;5.176;2022-08-01T08:34:19;23.70;99.90
19941;DHT22;10132;50.864;5.176;2022-08-01T08:36:21;23.90;99.90
19941;DHT22;10132;50.864;5.176;2022-08-01T08:38:24;24.00;99.90
19941;DHT22;10132;50.864;5.176;2022-08-01T08:40:30;24.10;99.90
19941;DHT22;10132;50.864;5.176;2022-08-01T08:42:32;24.20;99.90
19941;DHT22;10132;50.864;5.176;2022-08-01T08:44:34;24.10;99.90
19941;DHT22;10132;50.864;5.176;2022-08-01T08:46:41;24.30;99.90
19941;DHT22;10132;50.864;5.176;2022-08-01T08:48:43;24.70;99.90
19941;DHT22;10132;50.864;5.176;2022-08-01T08:50:45;24.90;99.90
19941;DHT22;10132;50.864;5.176;2022-08-01T08:52:48;24.90;99.90
19941;DHT22;10132;50.864;5.176;2022-08-01T08:54:53;25.20;99.90
19941;DHT22;10132;50.864;5.176;2022-08-01T08:56:57;25.40;99.90
19941;DHT22;10132;50.864;5.176;2022-08-01T08:59:01;25.80;99.90
19941;DHT22;10132;50.864;5.176;2022-08-01T09:01:05;26.00;99.90
19941;DHT22;10132;50.864;5.176;2022-08-01T09:03:07;26.00;99.90
19941;DHT22;10132;50.864;5.176;2022-08-01T09:05:10;25.90;99.90
19941;DHT22;10132;50.864;5.176;2022-08-01T09:07:12;25.70;99.90
19941;DHT22;10132;50.864;5.176;2022-08-01T09:09:14;25.50;99.90
19941;DHT22;10132;50.864;5.176;2022-08-01T09:11:18;25.00;99.90
19941;DHT22;10132;50.864;5.176;2022-08-01T09:13:20;24.80;99.90
19941;DHT22;10132;50.864;5.176;2022-08-01T09:15:38;24.60;99.90
19941;DHT22;10132;50.864;5.176;2022-08-01T09:17:40;24.40;99.90
19941;DHT22;10132;50.864;5.176;2022-08-01T09:19:43;24.40;99.90
19941;DHT22;10132;50.864;5.176;2022-08-01T09:21:56;24.40;99.90
19941;DHT22;10132;50.864;5.176;2022-08-01T09:23:58;24.30;99.90
19941;DHT22;10132;50.864;5.176;2022-08-01T09:26:03;24.00;99.90
19941;DHT22;10132;50.864;5.176;2022-08-01T09:28:06;23.80;99.90
19941;DHT22;10132;50.864;5.176;2022-08-01T09:30:11;24.00;99.90
19941;DHT22;10132;50.864;5.176;2022-08-01T09:32:14;24.10;99.90
19941;DHT22;10132;50.864;5.176;2022-08-01T09:34:24;24.40;99.90
19941;DHT22;10132;50.864;5.176;2022-08-01T09:36:42;24.40;99.90
19941;DHT22;10132;50.864;5.176;2022-08-01T09:38:45;24.60;99.90
19941;DHT22;10132;50.864;5.176;2022-08-01T09:40:49;24.80;99.90
19941;DHT22;10132;50.864;5.176;2022-08-01T09:43:11;24.90;99.90
19941;DHT22;10132;50.864;5.176;2022-08-01T09:45:31;24.60;99.90
19941;DHT22;10132;50.864;5.176;2022-08-01T09:47:37;24.40;99.90
19941;DHT22;10132;50.864;5.176;2022-08-01T09:49:40;24.70;99.90
19941;DHT22;10132;50.864;5.176;2022-08-01T09:51:43;24.50;99.90
19941;DHT22;10132;50.864;5.176;2022-08-01T09:53:48;24.50;99.90
19941;DHT22;10132;50.864;5.176;2022-08-01T09:55:51;24.60;99.90
19941;DHT22;10132;50.864;5.176;2022-08-01T09:57:55;24.50;99.90
19941;DHT22;10132;50.864;5.176;2022-08-01T10:00:01;24.50;99.90
19941;DHT22;10132;50.864;5.176;2022-08-01T10:02:05;24.60;99.90
19941;DHT22;10132;50.864;5.176;2022-08-01T10:04:08;24.20;99.90
19941;DHT22;10132;50.864;5.176;2022-08-01T10:06:21;24.50;99.90
19941;DHT22;10132;50.864;5.176;2022-08-01T10:08:23;24.70;99.90
19941;DHT22;10132;50.864;5.176;2022-08-01T10:10:26;25.00;99.90
19941;DHT22;10132;50.864;5.176;2022-08-01T10:12:28;25.00;99.90
19941;DHT22;10132;50.864;5.176;2022-08-01T10:14:30;25.00;99.90
19941;DHT22;10132;50.864;5.176;2022-08-01T10:16:34;25.10;99.90
19941;DHT22;10132;50.864;5.176;2022-08-01T10:18:38;24.80;99.90
19941;DHT22;10132;50.864;5.176;2022-08-01T10:20:41;25.00;99.90
19941;DHT22;10132;50.864;5.176;2022-08-01T10:22:43;25.10;99.90
19941;DHT22;10132;50.864;5.176;2022-08-01T10:24:47;25.20;99.90
19941;DHT22;10132;50.864;5.176;2022-08-01T10:26:52;25.20;99.90
19941;DHT22;10132;50.864;5.176;2022-08-01T10:28:55;25.10;99.90
19941;DHT22;10132;50.864;5.176;2022-08-01T10:30:57;25.50;99.90
19941;DHT22;10132;50.864;5.176;2022-08-01T10:33:01;25.80;99.90
19941;DHT22;10132;50.864;5.176;2022-08-01T10:35:05;25.80;99.90
19941;DHT22;10132;50.864;5.176;2022-08-01T10:37:07;25.90;99.90
19941;DHT22;10132;50.864;5.176;2022-08-01T10:39:11;26.10;99.90
19941;DHT22;10132;50.864;5.176;2022-08-01T10:41:13;26.10;99.90
19941;DHT22;10132;50.864;5.176;2022-08-01T10:43:17;26.50;99.90
19941;DHT22;10132;50.864;5.176;2022-08-01T10:45:19;26.70;99.90
19941;DHT22;10132;50.864;5.176;2022-08-01T10:47:33;26.50;99.90
19941;DHT22;10132;50.864;5.176;2022-08-01T10:49:43;25.70;99.90
19941;DHT22;10132;50.864;5.176;2022-08-01T10:51:47;26.00;99.90
19941;DHT22;10132;50.864;5.176;2022-08-01T10:53:51;26.10;99.90
19941;DHT22;10132;50.864;5.176;2022-08-01T10:55:58;26.50;99.90
19941;DHT22;10132;50.864;5.176;2022-08-01T10:58:07;26.50;99.90
19941;DHT22;10132;50.864;5.176;2022-08-01T11:00:19;26.50;99.90
19941;DHT22;10132;50.864;5.176;2022-08-01T11:02:29;26.40;99.90
19941;DHT22;10132;50.864;5.176;2022-08-01T11:04:49;26.30;99.90
19941;DHT22;10132;50.864;5.176;2022-08-01T11:07:03;26.10;99.90
19941;DHT22;10132;50.864;5.176;2022-08-01T11:09:26;25.80;99.90
19941;DHT22;10132;50.864;5.176;2022-08-01T11:11:28;25.70;99.90
19941;DHT22;10132;50.864;5.176;2022-08-01T11:14:01;25.80;99.90
19941;DHT22;10132;50.864;5.176;2022-08-01T11:16:25;25.70;99.90
19941;DHT22;10132;50.864;5.176;2022-08-01T11:18:31;26.10;99.90
19941;DHT22;10132;50.864;5.176;2022-08-01T11:20:35;26.50;99.90
19941;DHT22;10132;50.864;5.176;2022-08-01T11:25:26;26.70;99.90
19941;DHT22;10132;50.864;5.176;2022-08-01T11:27:30;27.00;99.90
19941;DHT22;10132;50.864;5.176;2022-08-01T11:29:32;26.90;99.90
19941;DHT22;10132;50.864;5.176;2022-08-01T11:31:34;26.90;99.90
19941;DHT22;10132;50.864;5.176;2022-08-01T11:33:48;26.80;99.90
19941;DHT22;10132;50.864;5.176;2022-08-01T11:36:18;26.80;99.90
19941;DHT22;10132;50.864;5.176;2022-08-01T11:38:26;26.90;99.90
19941;DHT22;10132;50.864;5.176;2022-08-01T11:40:29;27.10;99.90
19941;DHT22;10132;50.864;5.176;2022-08-01T11:42:31;27.20;99.90
19941;DHT22;10132;50.864;5.176;2022-08-01T11:44:48;27.10;99.90
19941;DHT22;10132;50.864;5.176;2022-08-01T11:46:53;26.90;99.90
19941;DHT22;10132;50.864;5.176;2022-08-01T11:49:27;27.20;99.90
19941;DHT22;10132;50.864;5.176;2022-08-01T11:51:31;27.60;99.90
19941;DHT22;10132;50.864;5.176;2022-08-01T11:53:41;27.20;99.90
19941;DHT22;10132;50.864;5.176;2022-08-01T11:55:47;27.30;99.90
19941;DHT22;10132;50.864;5.176;2022-08-01T11:57:50;27.20;99.90
19941;DHT22;10132;50.864;5.176;2022-08-01T12:00:01;27.20;99.90
19941;DHT22;10132;50.864;5.176;2022-08-01T12:02:15;27.40;99.90
19941;DHT22;10132;50.864;5.176;2022-08-01T12:04:17;27.40;99.90
19941;DHT22;10132;50.864;5.176;2022-08-01T12:06:27;27.70;99.90
19941;DHT22;10132;50.864;5.176;2022-08-01T12:08:33;27.60;99.90
19941;DHT22;10132;50.864;5.176;2022-08-01T12:10:37;27.70;99.90
19941;DHT22;10132;50.864;5.176;2022-08-01T12:12:43;27.60;99.90
19941;DHT22;10132;50.864;5.176;2022-08-01T12:14:46;27.50;99.90
19941;DHT22;10132;50.864;5.176;2022-08-01T12:16:54;27.40;99.90
19941;DHT22;10132;50.864;5.176;2022-08-01T12:18:56;27.80;99.90
19941;DHT22;10132;50.864;5.176;2022-08-01T12:21:03;27.70;99.90
19941;DHT22;10132;50.864;5.176;2022-08-01T12:23:07;27.20;99.90
19941;DHT22;10132;50.864;5.176;2022-08-01T12:25:13;27.10;99.90
19941;DHT22;10132;50.864;5.176;2022-08-01T12:27:24;27.20;99.90
19941;DHT22;10132;50.864;5.176;2022-08-01T12:29:37;27.50;99.90
19941;DHT22;10132;50.864;5.176;2022-08-01T12:31:39;27.70;99.90
19941;DHT22;10132;50.864;5.176;2022-08-01T12:33:41;27.60;99.90
19941;DHT22;10132;50.864;5.176;2022-08-01T12:35:43;27.50;99.90
19941;DHT22;10132;50.864;5.176;2022-08-01T12:37:47;27.90;99.90
19941;DHT22;10132;50.864;5.176;2022-08-01T12:39:49;27.80;99.90
19941;DHT22;10132;50.864;5.176;2022-08-01T12:41:53;27.60;99.90
19941;DHT22;10132;50.864;5.176;2022-08-01T12:43:55;28.20;99.90
19941;DHT22;10132;50.864;5.176;2022-08-01T12:45:58;28.40;99.90
19941;DHT22;10132;50.864;5.176;2022-08-01T12:48:01;28.60;99.90
19941;DHT22;10132;50.864;5.176;2022-08-01T12:50:10;29.40;99.90
19941;DHT22;10132;50.864;5.176;2022-08-01T12:52:13;29.20;99.90
19941;DHT22;10132;50.864;5.176;2022-08-01T12:54:17;28.70;99.90
19941;DHT22;10132;50.864;5.176;2022-08-01T12:56:30;28.60;99.90
19941;DHT22;10132;50.864;5.176;2022-08-01T12:58:34;28.50;99.90
19941;DHT22;10132;50.864;5.176;2022-08-01T13:00:37;28.00;99.90
19941;DHT22;10132;50.864;5.176;2022-08-01T13:02:41;28.10;99.90
19941;DHT22;10132;50.864;5.176;2022-08-01T13:04:49;28.60;99.90
19941;DHT22;10132;50.864;5.176;2022-08-01T13:06:53;29.10;99.90
19941;DHT22;10132;50.864;5.176;2022-08-01T13:08:56;29.00;99.90